createdAt,value
2023-04-08T00:01:24.544Z,8.61
2023-04-08T00:03:52.531Z,8.60
2023-04-08T00:06:20.565Z,8.58
2023-04-08T00:08:48.656Z,8.60
2023-04-08T00:11:17.883Z,8.60
2023-04-08T00:13:45.958Z,8.60
2023-04-08T00:16:13.805Z,8.57
2023-04-08T00:18:42.707Z,8.60
2023-04-08T00:21:10.605Z,8.60
2023-04-08T00:23:38.382Z,8.56
2023-04-08T00:26:06.216Z,8.60
2023-04-08T00:28:35.503Z,8.63
2023-04-08T00:31:03.277Z,8.61
2023-04-08T00:33:31.084Z,8.60
2023-04-08T00:35:58.886Z,8.60
2023-04-08T00:38:26.670Z,8.57
2023-04-08T00:40:54.426Z,8.56
2023-04-08T00:43:22.191Z,8.55
2023-04-08T00:45:51.376Z,8.56
2023-04-08T00:48:19.165Z,8.53
2023-04-08T00:50:47.270Z,8.55
2023-04-08T00:53:18.468Z,8.55
2023-04-08T00:55:46.465Z,8.59
2023-04-08T00:58:15.358Z,8.60
2023-04-08T01:00:48.492Z,8.59
2023-04-08T01:03:19.969Z,8.59
2023-04-08T01:05:57.170Z,8.56
2023-04-08T01:08:28.030Z,8.56
2023-04-08T01:10:59.663Z,8.56
2023-04-08T01:13:32.825Z,8.55
2023-04-08T01:16:00.912Z,8.53
2023-04-08T01:18:31.698Z,8.54
2023-04-08T01:21:00.276Z,8.51
2023-04-08T01:23:38.315Z,8.52
2023-04-08T01:26:07.510Z,8.49
2023-04-08T01:28:36.431Z,8.46
2023-04-08T01:31:05.079Z,8.49
2023-04-08T01:33:33.771Z,8.48
2023-04-08T01:36:02.619Z,8.46
2023-04-08T01:38:32.860Z,8.43
2023-04-08T01:41:01.403Z,8.48
2023-04-08T01:43:32.223Z,8.47
2023-04-08T01:46:01.205Z,8.49
2023-04-08T01:48:29.676Z,8.50
2023-04-08T01:50:58.276Z,8.48
2023-04-08T01:53:26.315Z,8.50
2023-04-08T01:56:10.358Z,8.47
2023-04-08T01:58:42.993Z,8.47
2023-04-08T02:01:13.429Z,8.44
2023-04-08T02:03:44.533Z,8.41
2023-04-08T02:06:12.435Z,8.43
2023-04-08T02:08:40.267Z,8.41
2023-04-08T02:11:08.000Z,8.40
2023-04-08T02:13:35.938Z,8.39
2023-04-08T02:16:11.975Z,8.42
2023-04-08T02:18:44.620Z,8.42
2023-04-08T02:21:15.537Z,8.38
2023-04-08T02:23:47.165Z,8.38
2023-04-08T02:26:16.857Z,8.40
2023-04-08T02:28:44.996Z,8.40
2023-04-08T02:31:15.781Z,8.39
2023-04-08T02:33:44.426Z,8.33
2023-04-08T02:36:13.406Z,8.31
2023-04-08T02:38:41.306Z,8.29
2023-04-08T02:41:09.124Z,8.29
2023-04-08T02:43:36.879Z,8.21
2023-04-08T02:46:04.746Z,8.21
2023-04-08T02:48:34.298Z,8.21
2023-04-08T02:51:02.098Z,8.22
2023-04-08T02:53:30.000Z,8.19
2023-04-08T02:55:57.760Z,8.19
2023-04-08T02:58:25.493Z,8.15
2023-04-08T03:00:53.440Z,8.12
2023-04-08T03:03:27.665Z,8.10
2023-04-08T03:05:57.607Z,8.11
2023-04-08T03:08:25.821Z,8.09
2023-04-08T03:10:53.762Z,8.12
2023-04-08T03:13:21.486Z,8.05
2023-04-08T03:15:49.298Z,7.98
2023-04-08T03:18:17.805Z,7.99
2023-04-08T03:20:45.550Z,7.90
2023-04-08T03:23:14.726Z,7.79
2023-04-08T03:25:42.411Z,7.73
2023-04-08T03:28:10.166Z,7.71
2023-04-08T03:30:38.095Z,7.63
2023-04-08T03:33:08.105Z,7.48
2023-04-08T03:35:36.112Z,7.43
2023-04-08T03:38:03.976Z,7.46
2023-04-08T03:40:33.071Z,7.47
2023-04-08T03:43:01.145Z,7.41
2023-04-08T03:45:28.890Z,7.27
2023-04-08T03:47:56.635Z,7.15
2023-04-08T03:50:24.558Z,7.13
2023-04-08T03:52:52.330Z,7.15
2023-04-08T03:55:20.048Z,7.21
2023-04-08T03:57:49.211Z,7.18
2023-04-08T04:00:17.110Z,7.13
2023-04-08T04:02:44.970Z,7.07
2023-04-08T04:05:12.761Z,7.01
2023-04-08T04:07:40.554Z,6.84
2023-04-08T04:10:10.408Z,6.82
2023-04-08T04:12:38.161Z,6.74
2023-04-08T04:15:08.538Z,6.75
2023-04-08T04:17:36.287Z,6.76
2023-04-08T04:20:05.475Z,6.79
2023-04-08T04:22:33.294Z,6.81
2023-04-08T04:25:01.017Z,6.82
2023-04-08T04:27:28.782Z,6.83
2023-04-08T04:29:56.974Z,6.73
2023-04-08T04:32:26.400Z,6.73
2023-04-08T04:34:54.172Z,6.70
2023-04-08T04:37:22.011Z,6.69
2023-04-08T04:39:49.812Z,6.64
2023-04-08T04:42:17.545Z,6.65
2023-04-08T04:44:45.317Z,6.56
2023-04-08T04:47:13.037Z,6.51
2023-04-08T04:49:42.132Z,6.45
2023-04-08T04:52:09.895Z,6.32
2023-04-08T04:54:37.622Z,6.29
2023-04-08T04:57:05.601Z,6.33
2023-04-08T04:59:33.341Z,6.30
2023-04-08T05:02:01.224Z,6.29
2023-04-08T05:04:28.977Z,6.17
2023-04-08T05:07:00.392Z,6.20
2023-04-08T05:09:28.159Z,6.22
2023-04-08T05:11:55.842Z,6.19
2023-04-08T05:14:23.657Z,6.03
2023-04-08T05:16:51.472Z,6.06
2023-04-08T05:19:19.231Z,6.12
2023-04-08T05:21:47.022Z,6.18
2023-04-08T05:24:16.159Z,6.17
2023-04-08T05:26:43.904Z,6.19
2023-04-08T05:29:11.882Z,6.29
2023-04-08T05:31:39.725Z,6.27
2023-04-08T05:34:07.497Z,6.15
2023-04-08T05:36:35.316Z,6.17
2023-04-08T05:39:03.558Z,6.16
2023-04-08T05:41:32.717Z,6.16
2023-04-08T05:44:00.478Z,6.16
2023-04-08T05:46:28.253Z,6.23
2023-04-08T05:48:56.053Z,6.29
2023-04-08T05:51:23.767Z,6.18
2023-04-08T05:53:51.523Z,6.24
2023-04-08T05:56:19.240Z,6.18
2023-04-08T05:58:48.632Z,6.10
2023-04-08T06:01:16.784Z,6.02
2023-04-08T06:03:44.744Z,6.10
2023-04-08T06:06:13.092Z,6.09
2023-04-08T06:08:41.083Z,6.09
2023-04-08T06:11:08.846Z,6.13
2023-04-08T06:13:37.313Z,6.17
2023-04-08T06:16:13.483Z,6.13
2023-04-08T06:18:41.519Z,6.19
2023-04-08T06:21:09.484Z,6.24
2023-04-08T06:23:37.416Z,6.28
2023-04-08T06:26:05.837Z,6.33
2023-04-08T06:28:33.704Z,6.25
2023-04-08T06:31:01.661Z,6.29
2023-04-08T06:33:30.825Z,6.36
2023-04-08T06:36:08.389Z,6.34
2023-04-08T06:38:36.582Z,6.21
2023-04-08T06:41:04.806Z,6.25
2023-04-08T06:43:32.704Z,6.30
2023-04-08T06:46:00.572Z,6.24
2023-04-08T06:48:30.587Z,6.29
2023-04-08T06:51:01.347Z,6.39
2023-04-08T06:53:31.249Z,6.41
2023-04-08T06:55:59.120Z,6.42
2023-04-08T06:58:27.327Z,6.46
2023-04-08T07:00:55.768Z,6.56
2023-04-08T07:03:24.037Z,6.60
2023-04-08T07:05:51.923Z,6.66
2023-04-08T07:08:21.278Z,6.74
2023-04-08T07:10:49.057Z,6.75
2023-04-08T07:13:17.457Z,6.79
2023-04-08T07:15:45.199Z,6.81
2023-04-08T07:18:13.541Z,6.84
2023-04-08T07:20:41.989Z,6.85
2023-04-08T07:23:10.853Z,6.83
2023-04-08T07:25:39.978Z,6.84
2023-04-08T07:28:07.742Z,6.83
2023-04-08T07:30:35.520Z,6.92
2023-04-08T07:33:03.311Z,7.01
2023-04-08T07:35:32.042Z,6.99
2023-04-08T07:38:00.151Z,6.99
2023-04-08T07:40:27.963Z,7.04
2023-04-08T07:42:57.269Z,7.04
2023-04-08T07:45:25.043Z,7.12
2023-04-08T07:47:52.800Z,7.18
2023-04-08T07:50:20.686Z,7.22
2023-04-08T07:52:48.387Z,7.24
2023-04-08T07:55:16.331Z,7.28
2023-04-08T07:57:44.166Z,7.31
2023-04-08T08:00:20.845Z,7.28
2023-04-08T08:02:49.242Z,7.30
2023-04-08T08:05:17.371Z,7.31
2023-04-08T08:07:45.280Z,7.36
2023-04-08T08:10:13.076Z,7.41
2023-04-08T08:12:40.940Z,7.33
2023-04-08T08:15:10.140Z,7.35
2023-04-08T08:17:39.271Z,7.35
2023-04-08T08:20:08.566Z,7.41
2023-04-08T08:22:41.852Z,7.48
2023-04-08T08:25:19.790Z,7.51
2023-04-08T08:27:47.725Z,7.52
2023-04-08T08:30:16.180Z,7.59
2023-04-08T08:32:45.367Z,7.61
2023-04-08T08:35:13.183Z,7.62
2023-04-08T08:37:40.949Z,7.57
2023-04-08T08:40:10.102Z,7.49
2023-04-08T08:42:38.061Z,7.68
2023-04-08T08:45:07.093Z,7.65
2023-04-08T08:47:35.020Z,7.69
2023-04-08T08:50:04.316Z,7.68
2023-04-08T08:52:32.224Z,7.78
2023-04-08T08:55:01.369Z,7.83
2023-04-08T08:57:29.126Z,7.84
2023-04-08T08:59:57.388Z,7.92
2023-04-08T09:02:27.775Z,7.96
2023-04-08T09:05:00.600Z,8.02
2023-04-08T09:07:31.146Z,8.12
2023-04-08T09:10:00.679Z,8.17
2023-04-08T09:12:29.531Z,8.12
2023-04-08T09:15:08.583Z,8.15
2023-04-08T09:17:37.804Z,8.21
2023-04-08T09:20:11.552Z,8.21
2023-04-08T09:23:06.281Z,8.15
2023-04-08T09:25:35.766Z,8.42
2023-04-08T09:28:03.613Z,8.49
2023-04-08T09:30:33.484Z,8.50
2023-04-08T09:33:01.499Z,8.63
2023-04-08T09:35:29.365Z,8.59
2023-04-08T09:37:57.205Z,8.65
2023-04-08T09:40:27.954Z,8.85
2023-04-08T09:42:58.275Z,9.13
2023-04-08T09:45:28.117Z,9.35
2023-04-08T09:47:59.210Z,9.53
2023-04-08T09:50:31.702Z,9.71
2023-04-08T09:53:04.354Z,9.98
2023-04-08T09:55:37.458Z,10.21
2023-04-08T09:58:16.666Z,10.40
2023-04-08T10:00:50.731Z,10.65
2023-04-08T10:03:29.327Z,10.67
2023-04-08T10:05:58.018Z,10.78
2023-04-08T10:08:27.082Z,11.03
2023-04-08T10:10:56.323Z,11.31
2023-04-08T10:13:28.276Z,11.46
2023-04-08T10:16:20.091Z,11.79
2023-04-08T10:18:47.834Z,12.09
2023-04-08T10:21:33.099Z,12.34
2023-04-08T10:24:06.307Z,12.52
2023-04-08T10:26:39.790Z,12.81
2023-04-08T10:29:44.021Z,12.90
2023-04-08T10:32:30.075Z,12.84
2023-04-08T10:34:57.981Z,13.06
2023-04-08T10:37:25.778Z,12.97
2023-04-08T10:39:55.531Z,12.98
2023-04-08T10:42:28.887Z,13.13
2023-04-08T10:45:01.812Z,13.44
2023-04-08T10:47:30.969Z,13.81
2023-04-08T10:49:58.717Z,13.99
2023-04-08T10:52:27.565Z,13.87
2023-04-08T10:54:55.915Z,13.84
2023-04-08T10:57:27.210Z,14.07
2023-04-08T10:59:55.076Z,14.33
2023-04-08T11:02:23.179Z,14.49
2023-04-08T11:04:55.951Z,14.65
2023-04-08T11:07:24.040Z,14.85
2023-04-08T11:09:52.064Z,14.90
2023-04-08T11:12:19.814Z,14.89
2023-04-08T11:14:49.578Z,15.23
2023-04-08T11:17:17.820Z,15.36
2023-04-08T11:19:45.749Z,15.42
2023-04-08T11:22:15.047Z,15.49
2023-04-08T11:24:43.034Z,15.35
2023-04-08T11:27:11.109Z,15.55
2023-04-08T11:29:39.651Z,15.46
2023-04-08T11:32:08.998Z,15.43
2023-04-08T11:34:40.745Z,15.67
2023-04-08T11:37:09.575Z,16.06
2023-04-08T11:39:44.065Z,16.25
2023-04-08T11:42:27.801Z,16.38
2023-04-08T11:44:55.681Z,16.38
2023-04-08T11:47:23.769Z,16.60
2023-04-08T11:49:51.687Z,16.81
2023-04-08T11:52:19.380Z,17.02
2023-04-08T11:54:49.962Z,16.93
2023-04-08T11:57:29.630Z,16.50
2023-04-08T11:59:57.344Z,16.60
2023-04-08T12:02:25.325Z,16.73
2023-04-08T12:04:53.470Z,16.80
2023-04-08T12:07:21.543Z,16.85
2023-04-08T12:09:50.996Z,16.75
2023-04-08T12:12:18.780Z,16.18
2023-04-08T12:14:46.503Z,16.04
2023-04-08T12:17:14.215Z,16.00
2023-04-08T12:19:42.232Z,16.17
2023-04-08T12:22:09.979Z,16.29
2023-04-08T12:24:37.711Z,16.45
2023-04-08T12:27:08.296Z,16.42
2023-04-08T12:29:36.050Z,16.28
2023-04-08T12:32:04.596Z,16.40
2023-04-08T12:34:32.735Z,16.33
2023-04-08T12:37:00.589Z,16.48
2023-04-08T12:39:28.385Z,16.65
2023-04-08T12:41:56.934Z,16.35
2023-04-08T12:44:26.403Z,16.38
2023-04-08T12:46:54.737Z,16.49
2023-04-08T12:49:23.462Z,16.50
2023-04-08T12:51:51.458Z,16.53
2023-04-08T12:54:19.277Z,16.68
2023-04-08T12:56:48.791Z,16.88
2023-04-08T12:59:16.918Z,16.94
2023-04-08T13:01:46.196Z,16.97
2023-04-08T13:04:14.077Z,16.86
2023-04-08T13:06:41.962Z,16.72
2023-04-08T13:09:09.753Z,16.52
2023-04-08T13:11:37.488Z,16.42
2023-04-08T13:14:05.230Z,16.70
2023-04-08T13:16:33.180Z,16.82
2023-04-08T13:19:05.159Z,16.76
2023-04-08T13:21:32.908Z,16.91
2023-04-08T13:24:03.469Z,16.93
2023-04-08T13:26:31.280Z,17.04
2023-04-08T13:28:59.061Z,17.24
2023-04-08T13:31:27.224Z,17.12
2023-04-08T13:33:57.988Z,17.10
2023-04-08T13:36:28.614Z,16.73
2023-04-08T13:38:56.730Z,16.67
2023-04-08T13:41:25.349Z,16.57
2023-04-08T13:43:53.769Z,16.49
2023-04-08T13:46:21.594Z,16.46
2023-04-08T13:48:49.658Z,16.48
2023-04-08T13:51:17.820Z,16.80
2023-04-08T13:53:51.076Z,16.80
2023-04-08T13:56:18.859Z,16.78
2023-04-08T13:58:52.313Z,16.72
2023-04-08T14:01:24.547Z,16.86
2023-04-08T14:03:52.327Z,17.05
2023-04-08T14:06:20.073Z,17.36
2023-04-08T14:08:49.552Z,17.22
2023-04-08T14:11:17.552Z,17.05
2023-04-08T14:13:47.873Z,16.93
2023-04-08T14:16:16.821Z,16.86
2023-04-08T14:18:44.708Z,16.24
2023-04-08T14:21:14.097Z,16.22
2023-04-08T14:23:41.962Z,16.17
2023-04-08T14:26:11.046Z,15.76
2023-04-08T14:28:38.821Z,15.95
2023-04-08T14:31:06.755Z,15.85
2023-04-08T14:33:34.570Z,15.47
2023-04-08T14:36:02.383Z,15.52
2023-04-08T14:38:30.104Z,15.32
2023-04-08T14:40:57.839Z,15.32
2023-04-08T14:43:26.974Z,15.17
2023-04-08T14:45:54.845Z,15.23
2023-04-08T14:48:24.959Z,15.20
2023-04-08T14:50:52.753Z,15.26
2023-04-08T14:53:20.463Z,15.22
2023-04-08T14:55:48.214Z,15.13
2023-04-08T14:58:16.604Z,15.07
2023-04-08T15:00:47.794Z,15.06
2023-04-08T15:03:19.007Z,15.15
2023-04-08T15:05:46.862Z,15.19
2023-04-08T15:08:14.603Z,15.04
2023-04-08T15:10:42.379Z,15.05
2023-04-08T15:13:11.553Z,15.17
2023-04-08T15:15:39.293Z,15.21
2023-04-08T15:18:08.537Z,15.07
2023-04-08T15:20:36.402Z,14.97
2023-04-08T15:23:04.155Z,15.01
2023-04-08T15:25:32.812Z,14.99
2023-04-08T15:28:02.604Z,15.05
2023-04-08T15:30:35.217Z,15.15
2023-04-08T15:33:04.667Z,15.07
2023-04-08T15:35:33.959Z,14.95
2023-04-08T15:38:01.858Z,14.61
2023-04-08T15:40:32.174Z,14.37
2023-04-08T15:42:59.891Z,14.42
2023-04-08T15:45:28.557Z,14.51
2023-04-08T15:47:56.621Z,14.51
2023-04-08T15:50:24.407Z,14.41
2023-04-08T15:52:53.531Z,14.35
2023-04-08T15:55:21.331Z,14.36
2023-04-08T15:57:49.319Z,14.18
2023-04-08T16:00:17.722Z,14.28
2023-04-08T16:02:46.694Z,13.96
2023-04-08T16:05:14.751Z,14.00
2023-04-08T16:07:43.133Z,14.00
2023-04-08T16:10:12.301Z,14.10
2023-04-08T16:12:40.086Z,13.98
2023-04-08T16:15:08.452Z,13.68
2023-04-08T16:17:36.352Z,13.65
2023-04-08T16:20:05.000Z,13.75
2023-04-08T16:22:32.764Z,13.60
2023-04-08T16:25:00.580Z,13.74
2023-04-08T16:27:29.728Z,13.75
2023-04-08T16:29:58.186Z,13.73
2023-04-08T16:32:26.175Z,13.69
2023-04-08T16:34:53.992Z,13.57
2023-04-08T16:37:21.809Z,13.43
2023-04-08T16:39:49.818Z,13.42
2023-04-08T16:42:18.241Z,13.50
2023-04-08T16:44:47.360Z,13.47
2023-04-08T16:47:15.465Z,13.37
2023-04-08T16:49:43.170Z,13.35
2023-04-08T16:52:11.020Z,13.25
2023-04-08T16:54:38.754Z,13.37
2023-04-08T16:57:06.545Z,13.35
2023-04-08T16:59:34.290Z,13.22
2023-04-08T17:02:03.577Z,13.10
2023-04-08T17:04:31.418Z,13.21
2023-04-08T17:06:59.227Z,13.11
2023-04-08T17:09:28.162Z,13.16
2023-04-08T17:11:57.281Z,13.22
2023-04-08T17:14:25.250Z,13.15
2023-04-08T17:16:53.099Z,13.22
2023-04-08T17:19:22.274Z,13.24
2023-04-08T17:21:50.269Z,13.30
2023-04-08T17:24:18.088Z,13.33
2023-04-08T17:26:46.202Z,13.32
2023-04-08T17:29:13.962Z,13.31
2023-04-08T17:31:41.807Z,13.29
2023-04-08T17:34:09.552Z,13.33
2023-04-08T17:36:38.702Z,13.31
2023-04-08T17:39:06.491Z,13.27
2023-04-08T17:41:40.162Z,13.20
2023-04-08T17:44:08.575Z,13.10
2023-04-08T17:46:36.796Z,13.06
2023-04-08T17:49:04.639Z,12.94
2023-04-08T17:51:33.038Z,12.86
2023-04-08T17:54:02.288Z,12.79
2023-04-08T17:56:30.026Z,12.79
2023-04-08T17:58:57.820Z,12.70
2023-04-08T18:01:25.683Z,12.62
2023-04-08T18:03:53.766Z,12.57
2023-04-08T18:06:22.016Z,12.51
2023-04-08T18:08:49.777Z,12.41
2023-04-08T18:11:19.671Z,12.37
2023-04-08T18:13:48.716Z,12.31
2023-04-08T18:16:18.266Z,12.28
2023-04-08T18:18:46.171Z,12.24
2023-04-08T18:21:15.042Z,12.28
2023-04-08T18:23:43.013Z,12.29
2023-04-08T18:26:10.883Z,12.22
2023-04-08T18:28:40.028Z,12.06
2023-04-08T18:31:08.242Z,11.86
2023-04-08T18:33:36.345Z,11.70
2023-04-08T18:36:08.388Z,11.63
2023-04-08T18:38:36.767Z,11.61
2023-04-08T18:41:04.980Z,11.56
2023-04-08T18:43:33.212Z,11.52
2023-04-08T18:46:02.411Z,11.48
2023-04-08T18:48:30.456Z,11.42
2023-04-08T18:50:58.646Z,11.30
2023-04-08T18:53:26.487Z,11.19
2023-04-08T18:55:54.859Z,11.07
2023-04-08T18:58:22.773Z,11.00
2023-04-08T19:00:53.736Z,10.93
2023-04-08T19:03:22.992Z,10.88
2023-04-08T19:05:51.488Z,10.83
2023-04-08T19:08:19.265Z,10.73
2023-04-08T19:10:47.028Z,10.68
2023-04-08T19:13:15.019Z,10.55
2023-04-08T19:15:43.130Z,10.48
2023-04-08T19:18:10.947Z,10.47
2023-04-08T19:20:40.100Z,10.37
2023-04-08T19:23:07.858Z,10.34
2023-04-08T19:25:35.611Z,10.31
2023-04-08T19:28:05.460Z,10.14
2023-04-08T19:30:37.233Z,9.96
2023-04-08T19:33:05.123Z,9.86
2023-04-08T19:35:32.998Z,9.82
2023-04-08T19:38:02.158Z,9.80
2023-04-08T19:40:29.927Z,9.83
2023-04-08T19:42:57.671Z,9.87
2023-04-08T19:45:25.421Z,9.85
2023-04-08T19:47:53.224Z,9.72
2023-04-08T19:50:22.349Z,9.69
2023-04-08T19:52:50.240Z,9.72
2023-04-08T19:55:21.664Z,9.74
2023-04-08T19:57:49.711Z,9.82
2023-04-08T20:00:17.514Z,9.72
2023-04-08T20:02:45.590Z,9.75
2023-04-08T20:05:16.214Z,9.71
2023-04-08T20:07:44.473Z,9.64
2023-04-08T20:10:13.359Z,9.62
2023-04-08T20:12:42.541Z,9.55
2023-04-08T20:15:22.979Z,9.56
2023-04-08T20:17:52.725Z,9.52
2023-04-08T20:20:20.896Z,9.46
2023-04-08T20:22:48.806Z,9.44
2023-04-08T20:25:16.821Z,9.42
2023-04-08T20:27:45.920Z,9.39
2023-04-08T20:30:14.198Z,9.30
2023-04-08T20:32:42.053Z,9.28
2023-04-08T20:35:10.949Z,9.26
2023-04-08T20:37:39.062Z,9.23
2023-04-08T20:40:08.460Z,9.18
2023-04-08T20:42:36.462Z,9.22
2023-04-08T20:45:06.276Z,9.17
2023-04-08T20:47:34.074Z,9.13
2023-04-08T20:50:01.873Z,9.11
2023-04-08T20:52:29.571Z,9.07
2023-04-08T20:54:57.326Z,9.00
2023-04-08T20:57:25.073Z,8.92
2023-04-08T20:59:52.861Z,8.91
2023-04-08T21:02:22.245Z,8.89
2023-04-08T21:04:50.109Z,8.86
2023-04-08T21:07:18.128Z,8.82
2023-04-08T21:09:48.163Z,8.77
2023-04-08T21:12:15.960Z,8.73
2023-04-08T21:14:45.248Z,8.69
2023-04-08T21:17:13.138Z,8.66
2023-04-08T21:19:42.667Z,8.65
2023-04-08T21:22:10.486Z,8.68
2023-04-08T21:24:38.245Z,8.66
2023-04-08T21:27:06.077Z,8.65
2023-04-08T21:29:33.810Z,8.64
2023-04-08T21:32:01.568Z,8.66
2023-04-08T21:38:18.017Z,8.62
2023-04-08T21:40:45.962Z,8.58
2023-04-08T21:43:13.742Z,8.58
2023-04-08T21:45:41.546Z,8.51
2023-04-08T21:48:09.359Z,8.40
2023-04-08T21:50:38.500Z,8.36
2023-04-08T21:53:06.446Z,8.31
2023-04-08T21:55:35.724Z,8.28
2023-04-08T21:58:03.493Z,8.24
2023-04-08T22:00:31.250Z,8.28
2023-04-08T22:02:59.206Z,8.28
2023-04-08T22:05:27.037Z,8.23
2023-04-08T22:07:54.949Z,8.18
2023-04-08T22:10:22.834Z,8.18
2023-04-08T22:12:52.055Z,8.16
2023-04-08T22:15:19.762Z,8.15
2023-04-08T22:17:47.538Z,8.14
2023-04-08T22:20:15.333Z,8.14
2023-04-08T22:22:43.096Z,8.13
2023-04-08T22:25:11.512Z,8.12
2023-04-08T22:27:39.524Z,8.13
2023-04-08T22:30:10.422Z,8.13
2023-04-08T22:32:38.206Z,8.10
2023-04-08T22:35:07.001Z,8.10
2023-04-08T22:37:34.772Z,8.08
2023-04-08T22:40:02.755Z,8.05
2023-04-08T22:42:30.576Z,8.02
2023-04-08T22:44:58.325Z,8.01
2023-04-08T22:47:27.488Z,8.01
2023-04-08T22:49:55.423Z,7.98
2023-04-08T22:52:23.266Z,7.99
2023-04-08T22:54:51.279Z,7.97
2023-04-08T22:57:19.098Z,7.96
2023-04-08T22:59:46.850Z,7.95
2023-04-08T23:02:14.744Z,7.92
2023-04-08T23:04:43.914Z,7.90
2023-04-08T23:07:11.645Z,7.84
2023-04-08T23:09:39.381Z,7.82
2023-04-08T23:12:07.183Z,7.81
2023-04-08T23:14:34.937Z,7.80
2023-04-08T23:17:05.039Z,7.81
2023-04-08T23:19:33.250Z,7.79
2023-04-08T23:22:02.374Z,7.80
2023-04-08T23:24:30.354Z,7.80
2023-04-08T23:26:58.051Z,7.82
2023-04-08T23:29:25.839Z,7.84
2023-04-08T23:31:53.582Z,7.91
2023-04-08T23:34:21.286Z,8.03
2023-04-08T23:36:49.090Z,8.12
2023-04-08T23:39:18.832Z,8.16
2023-04-08T23:41:46.595Z,8.22
2023-04-08T23:44:14.389Z,8.25
2023-04-08T23:46:42.205Z,8.31
2023-04-08T23:49:09.983Z,8.35
2023-04-08T23:51:38.874Z,8.38
2023-04-08T23:54:06.704Z,8.41
2023-04-08T23:56:35.837Z,8.43
2023-04-08T23:59:03.561Z,8.43
